Time;durP1;ratioP1;P1;durP2;ratioP2;P2;SDS_P1;SDS_P2;PMS_P1;PMS_P2;Temp;Humidity;BMP_temperature;BMP_pressure;BME280_temperature;BME280_humidity;BME280_pressure;Samples;Min_cycle;Max_cycle;Signal;HPM_P1;HPM_P2
2022/04/13 00:01:40;;;;;;;21.15;8.93;;;;;;;-144.47;42.71;53295.06;4887621;29;20108;-70
2022/04/13 00:04:05;;;;;;;21.13;9.60;;;;;;;-144.47;43.24;53289.09;4893628;29;20032;-72
2022/04/13 00:06:30;;;;;;;20.17;8.73;;;;;;;-144.47;43.29;53295.06;4877252;29;20032;-71
2022/04/13 00:08:56;;;;;;;22.85;9.25;;;;;;;-144.47;43.22;53299.03;4893570;29;20045;-72
2022/04/13 00:11:22;;;;;;;17.00;8.93;;;;;;;-144.47;43.61;53291.09;4882616;29;20041;-70
2022/04/13 00:13:47;;;;;;;19.77;10.18;;;;;;;-144.47;43.81;53283.13;4873256;29;20481;-67
2022/04/13 00:16:13;;;;;;;18.48;8.98;;;;;;;-144.47;43.99;53301.03;4859050;29;20048;-70
2022/04/13 00:18:38;;;;;;;17.20;9.05;;;;;;;-144.47;43.74;53289.09;4868600;29;20021;-70
2022/04/13 00:21:04;;;;;;;24.30;10.55;;;;;;;-144.47;43.50;53271.22;4874334;29;20041;-68
2022/04/13 00:23:30;;;;;;;19.25;9.27;;;;;;;-144.47;43.43;53305.00;4875088;29;20481;-69
2022/04/13 00:25:57;;;;;;;17.70;8.57;;;;;;;-144.47;43.89;53344.72;4874910;29;20132;-69
2022/04/13 00:28:23;;;;;;;20.20;9.27;;;;;;;-144.47;44.24;53273.22;4875052;29;20090;-70
2022/04/13 00:30:49;;;;;;;19.08;9.40;;;;;;;-144.47;44.40;53324.84;4874737;29;20065;-69
2022/04/13 00:33:14;;;;;;;18.98;9.00;;;;;;;-144.47;45.06;53303.00;4875037;29;20041;-67
2022/04/13 00:35:39;;;;;;;16.75;8.32;;;;;;;-144.47;44.81;53326.84;4874566;29;20059;-71
2022/04/13 00:38:05;;;;;;;19.88;10.07;;;;;;;-144.47;45.06;53320.88;4874388;29;20730;-68
2022/04/13 00:40:31;;;;;;;18.50;8.93;;;;;;;-144.47;45.02;53293.06;4874117;29;20053;-69
2022/04/13 00:42:56;;;;;;;20.85;9.60;;;;;;;-144.47;44.66;53342.72;4874552;29;20515;-67
2022/04/13 00:45:21;;;;;;;19.35;8.73;;;;;;;-144.47;45.18;53310.94;4873489;29;20120;-70
2022/04/13 00:47:47;;;;;;;20.00;9.60;;;;;;;-144.47;44.84;53269.22;4864359;29;20046;-68
2022/04/13 00:50:13;;;;;;;21.90;9.02;;;;;;;-144.47;45.03;53324.84;4864219;29;20037;-70
2022/04/13 00:52:43;;;;;;;24.50;9.85;;;;;;;-144.47;44.68;53312.94;4874353;29;20521;-70
2022/04/13 00:55:10;;;;;;;25.48;10.48;;;;;;;-144.47;45.03;53342.72;4861858;29;20093;-71
2022/04/13 00:57:37;;;;;;;18.25;9.35;;;;;;;-144.47;45.01;53312.94;4868580;29;20505;-73
2022/04/13 01:00:04;;;;;;;20.88;9.07;;;;;;;-144.47;45.19;53338.75;4874385;29;20048;-73
2022/04/13 01:02:31;;;;;;;17.73;8.70;;;;;;;-144.47;45.63;53283.13;4873822;29;20529;-71
2022/04/13 01:05:02;;;;;;;28.33;10.95;;;;;;;-144.47;46.26;53308.97;4874004;29;20037;-69
2022/04/13 01:07:29;;;;;;;20.95;9.52;;;;;;;-144.47;46.59;53324.84;4873965;29;20123;-68
2022/04/13 01:09:54;;;;;;;20.02;9.63;;;;;;;-144.47;46.74;53316.91;4874391;29;20025;-70
2022/04/13 01:12:19;;;;;;;19.40;9.30;;;;;;;-144.47;46.77;53334.78;4910739;29;20059;-71
2022/04/13 01:14:45;;;;;;;19.85;9.45;;;;;;;-144.47;46.55;53305.00;4911736;29;20163;-70
2022/04/13 01:17:10;;;;;;;22.33;9.45;;;;;;;-144.47;46.69;53306.97;4911680;29;20090;-69
2022/04/13 01:19:36;;;;;;;24.25;9.43;;;;;;;-144.47;46.92;53318.91;4894270;29;20040;-68
2022/04/13 01:22:16;;;;;;;20.25;8.98;;;;;;;-144.47;46.39;53312.94;4911230;29;20385;-70
2022/04/13 01:24:42;;;;;;;18.83;9.30;;;;;;;-144.47;46.55;53293.06;4894725;29;20488;-70
2022/04/13 01:27:07;;;;;;;24.42;9.63;;;;;;;-144.47;46.75;53322.88;4911523;29;20187;-69
2022/04/13 01:29:32;;;;;;;18.30;8.07;;;;;;;-144.47;46.76;53289.09;4911481;29;20044;-69
2022/04/13 01:31:58;;;;;;;21.63;9.77;;;;;;;-144.47;47.27;53338.75;4910947;29;20171;-70
2022/04/13 01:34:23;;;;;;;22.33;10.18;;;;;;;-144.47;47.31;53273.22;4911379;29;20066;-70
2022/04/13 01:36:49;;;;;;;19.73;10.32;;;;;;;-144.47;47.35;53320.88;4912003;29;20082;-69
2022/04/13 01:39:14;;;;;;;21.58;9.18;;;;;;;-144.47;47.22;53316.91;4911863;29;20631;-70
2022/04/13 01:41:40;;;;;;;23.58;8.77;;;;;;;-144.47;47.54;53310.94;4910797;29;20047;-69
2022/04/13 01:44:05;;;;;;;21.33;9.93;;;;;;;-144.47;47.74;53271.22;4910467;29;20067;-69
2022/04/13 01:46:30;;;;;;;19.65;9.73;;;;;;;-144.47;47.96;53338.75;4910468;29;20112;-69
2022/04/13 01:48:56;;;;;;;20.20;9.68;;;;;;;-144.47;48.06;53285.13;4893306;29;20626;-69
2022/04/13 01:51:21;;;;;;;22.85;9.57;;;;;;;-144.47;47.84;53306.97;4910690;29;20020;-71
2022/04/13 01:53:48;;;;;;;20.63;9.32;;;;;;;-144.47;48.06;53283.13;4911197;29;20155;-70
2022/04/13 01:56:14;;;;;;;20.20;9.80;;;;;;;-144.47;48.58;53342.72;4909539;29;20036;-71
2022/04/13 01:58:39;;;;;;;25.98;10.27;;;;;;;-144.47;48.82;53322.88;4911309;29;20152;-70
2022/04/13 02:01:04;;;;;;;24.33;10.20;;;;;;;-144.47;48.58;53308.97;4892985;29;20024;-67
2022/04/13 02:03:30;;;;;;;26.77;10.07;;;;;;;-144.47;48.27;53340.75;4911213;29;20494;-69
2022/04/13 02:05:55;;;;;;;24.20;10.00;;;;;;;-144.47;48.80;53326.84;4910673;29;20036;-70
2022/04/13 02:08:22;;;;;;;23.33;8.82;;;;;;;-144.47;48.54;53312.94;4911021;29;20052;-70
2022/04/13 02:10:48;;;;;;;19.85;9.50;;;;;;;-144.47;49.25;53287.13;4910176;29;20043;-70
2022/04/13 02:13:14;;;;;;;20.48;9.32;;;;;;;-144.47;49.30;53318.91;4910316;29;20107;-71
2022/04/13 02:15:40;;;;;;;22.48;9.23;;;;;;;-144.47;49.11;53308.97;4909001;29;20032;-70
2022/04/13 02:18:06;;;;;;;20.40;9.52;;;;;;;-144.47;49.14;53316.91;4910669;29;20075;-70
2022/04/13 02:20:32;;;;;;;16.58;8.43;;;;;;;-144.47;48.77;53326.84;4910391;29;20147;-70
2022/04/13 02:22:57;;;;;;;20.42;9.23;;;;;;;-144.47;48.76;53320.88;4910903;29;20040;-68
2022/04/13 02:25:22;;;;;;;19.10;9.55;;;;;;;-144.47;48.51;53326.84;4910554;29;20376;-71
2022/04/13 02:27:51;;;;;;;21.90;9.70;;;;;;;-144.47;48.66;53344.72;4894461;29;20152;-70
2022/04/13 02:30:16;;;;;;;18.93;9.63;;;;;;;-144.47;48.81;53295.06;4910542;29;20032;-71
2022/04/13 02:32:45;;;;;;;23.02;8.70;;;;;;;-144.47;48.64;53326.84;4910438;29;20318;-71
2022/04/13 02:35:13;;;;;;;23.83;10.60;;;;;;;-144.47;48.76;53305.00;4910413;29;20134;-71
2022/04/13 02:37:39;;;;;;;21.35;9.40;;;;;;;-144.47;48.86;53308.97;4910625;29;20530;-72
2022/04/13 02:40:06;;;;;;;22.15;10.00;;;;;;;-144.47;49.08;53314.91;4909649;29;20119;-72
2022/04/13 02:42:35;;;;;;;16.75;9.20;;;;;;;-144.47;49.44;53291.09;4910088;29;20095;-72
2022/04/13 02:45:01;;;;;;;18.15;9.13;;;;;;;-144.47;49.29;53332.81;4910175;29;20040;-68
2022/04/13 02:47:27;;;;;;;17.90;8.63;;;;;;;-144.47;49.67;53310.94;4910667;29;20124;-68
2022/04/13 02:49:53;;;;;;;22.33;9.55;;;;;;;-144.47;49.65;53336.78;4910388;29;20127;-71
2022/04/13 02:52:18;;;;;;;19.65;9.20;;;;;;;-144.47;49.34;53289.09;4910457;29;20058;-67
2022/04/13 02:54:43;;;;;;;19.33;9.27;;;;;;;-144.47;49.37;53310.94;4910484;29;20020;-69
2022/04/13 02:57:09;;;;;;;16.20;8.50;;;;;;;-144.47;49.48;53328.81;4909981;29;20055;-71
2022/04/13 02:59:34;;;;;;;17.85;8.70;;;;;;;-144.47;49.85;53320.88;4909969;29;20050;-71
2022/04/13 03:01:59;;;;;;;20.00;8.38;;;;;;;-144.47;49.66;53332.81;4894434;29;20052;-69
2022/04/13 03:04:25;;;;;;;16.40;8.93;;;;;;;-144.47;50.07;53299.03;4914089;29;20048;-69
2022/04/13 03:06:50;;;;;;;17.75;9.13;;;;;;;-144.47;49.75;53308.97;4914626;29;20464;-72
2022/04/13 03:09:15;;;;;;;20.17;8.63;;;;;;;-144.47;49.77;53301.03;4914246;29;20029;-71
2022/04/13 03:11:41;;;;;;;17.75;8.00;;;;;;;-144.47;49.61;53320.88;4913956;29;20043;-70
2022/04/13 03:14:06;;;;;;;21.83;8.48;;;;;;;-144.47;49.50;53306.97;4913477;29;20104;-70
2022/04/13 03:16:31;;;;;;;20.15;8.32;;;;;;;-144.47;49.88;53301.03;4913869;29;20064;-70
2022/04/13 03:18:57;;;;;;;24.23;9.32;;;;;;;-144.47;49.94;53332.81;4914286;29;20032;-69
2022/04/13 03:21:22;;;;;;;19.48;8.43;;;;;;;-144.47;49.71;53368.56;4914050;29;20092;-69
2022/04/13 03:23:47;;;;;;;16.88;7.57;;;;;;;-144.47;49.45;53332.81;4913840;29;20412;-69
2022/04/13 03:26:13;;;;;;;20.10;9.10;;;;;;;-144.47;49.64;53310.94;4913970;29;20044;-72
2022/04/13 03:28:38;;;;;;;28.10;10.00;;;;;;;-144.47;49.23;53299.03;4914194;29;20063;-69
2022/04/13 03:31:03;;;;;;;16.80;8.45;;;;;;;-144.47;49.21;53350.69;4912884;29;20100;-69
2022/04/13 03:33:29;;;;;;;18.30;8.85;;;;;;;-144.47;48.99;53285.13;4913969;29;20588;-70
2022/04/13 03:35:54;;;;;;;19.65;8.25;;;;;;;-144.47;49.46;53312.94;4913110;29;20049;-70
2022/04/13 03:38:19;;;;;;;17.20;7.72;;;;;;;-144.47;49.04;53344.72;4912978;29;20476;-71
2022/04/13 03:40:45;;;;;;;23.83;8.13;;;;;;;-144.47;49.21;53326.84;4912558;29;20107;-70
2022/04/13 03:43:10;;;;;;;16.48;8.75;;;;;;;-144.47;48.93;53340.75;4895496;29;20138;-72
2022/04/13 03:45:36;;;;;;;21.15;8.43;;;;;;;-144.47;49.73;53344.72;4913501;29;20036;-68
2022/04/13 03:48:01;;;;;;;21.63;8.07;;;;;;;-144.47;49.73;53322.88;4913484;29;20052;-72
2022/04/13 03:50:26;;;;;;;23.80;8.65;;;;;;;-144.47;49.42;53312.94;4913283;29;20040;-70
2022/04/13 03:52:52;;;;;;;18.30;7.65;;;;;;;-144.47;49.76;53348.69;4912547;29;20088;-68
2022/04/13 03:55:22;;;;;;;20.63;9.35;;;;;;;-144.47;50.20;53334.78;4913292;29;20502;-69
2022/04/13 03:57:47;;;;;;;17.67;9.10;;;;;;;-144.47;50.36;53332.81;4914027;29;20035;-70
2022/04/13 04:00:13;;;;;;;16.95;7.85;;;;;;;-144.47;50.10;53358.63;4913256;29;20447;-70
2022/04/13 04:02:39;;;;;;;16.15;8.27;;;;;;;-144.47;49.66;53334.78;4913380;29;20127;-74
2022/04/13 04:05:05;;;;;;;16.80;8.45;;;;;;;-144.47;49.95;53340.75;4912514;29;20577;-70
2022/04/13 04:07:33;;;;;;;21.13;8.50;;;;;;;-144.47;49.95;53301.03;4912896;29;20084;-72
2022/04/13 04:09:58;;;;;;;20.02;8.60;;;;;;;-144.47;49.62;53326.84;4905633;29;20036;-73
2022/04/13 04:12:24;;;;;;;19.98;9.13;;;;;;;-144.47;49.54;53322.88;4905353;29;20039;-71
2022/04/13 04:14:49;;;;;;;26.77;8.10;;;;;;;-144.47;49.87;53334.78;4904768;29;20032;-69
2022/04/13 04:17:14;;;;;;;15.88;7.28;;;;;;;-144.47;49.87;53352.66;4909923;29;20064;-71
2022/04/13 04:19:40;;;;;;;24.58;9.80;;;;;;;-144.47;49.31;53308.97;4911194;29;20123;-72
2022/04/13 04:22:05;;;;;;;18.70;8.07;;;;;;;-144.47;49.58;53322.88;4910333;29;20028;-72
2022/04/13 04:24:33;;;;;;;19.98;8.70;;;;;;;-144.47;49.61;53334.78;4895791;29;20036;-71
2022/04/13 04:26:59;;;;;;;20.07;8.80;;;;;;;-144.47;49.56;53338.75;4911974;29;20052;-69
2022/04/13 04:29:24;;;;;;;19.95;8.80;;;;;;;-144.47;49.75;53287.13;4895449;29;20132;-68
2022/04/13 04:31:50;;;;;;;22.20;8.00;;;;;;;-144.47;49.38;53299.03;4911858;29;20040;-74
2022/04/13 04:34:17;;;;;;;22.80;10.88;;;;;;;-144.47;49.68;53318.91;4895849;29;20069;-73
2022/04/13 04:36:43;;;;;;;22.05;9.05;;;;;;;-144.47;49.38;53305.00;4911717;29;20035;-67
2022/04/13 04:39:08;;;;;;;19.58;7.75;;;;;;;-144.47;49.43;53344.72;4911783;29;20044;-76
2022/04/13 04:41:34;;;;;;;20.02;8.40;;;;;;;-144.47;49.80;53320.88;4920366;23;20611;-70
2022/04/13 04:43:59;;;;;;;20.70;9.07;;;;;;;-144.47;49.63;53279.16;4913685;29;20027;-72
2022/04/13 04:46:25;;;;;;;17.92;7.72;;;;;;;-144.47;48.87;53303.00;4912960;29;20130;-70
2022/04/13 04:48:50;;;;;;;21.92;8.95;;;;;;;-144.47;48.94;53293.06;4914787;29;20023;-70
2022/04/13 04:51:15;;;;;;;24.05;8.07;;;;;;;-144.47;48.88;53299.03;4923631;29;20495;-69
2022/04/13 04:53:41;;;;;;;17.63;7.68;;;;;;;-144.47;48.96;53320.88;4912092;29;20055;-69
2022/04/13 04:56:07;;;;;;;25.30;9.05;;;;;;;-144.47;48.67;53312.94;4896636;29;20107;-68
2022/04/13 04:58:33;;;;;;;18.08;7.88;;;;;;;-144.47;49.08;53312.94;4916762;29;20539;-68
2022/04/13 05:00:58;;;;;;;15.00;8.23;;;;;;;-144.47;48.54;53308.97;4925548;29;20020;-70
2022/04/13 05:03:24;;;;;;;19.20;7.32;;;;;;;-144.47;49.17;53320.88;4914190;29;20028;-69
2022/04/13 05:05:49;;;;;;;17.05;8.05;;;;;;;-144.47;48.31;53332.81;4926011;29;20035;-69
2022/04/13 05:08:15;;;;;;;25.23;8.98;;;;;;;-144.47;48.24;53261.28;4920646;29;20071;-70
2022/04/13 05:10:42;;;;;;;22.38;7.95;;;;;;;-144.47;48.25;53275.19;4926227;29;20223;-70
2022/04/13 05:13:09;;;;;;;22.17;8.18;;;;;;;-144.47;48.11;53332.81;4929823;29;20055;-68
2022/04/13 05:15:34;;;;;;;16.88;7.15;;;;;;;-144.47;48.79;53338.75;4930553;29;20035;-69
2022/04/13 05:17:59;;;;;;;15.93;7.85;;;;;;;-144.47;47.88;53318.91;4919546;29;20091;-70
2022/04/13 05:20:25;;;;;;;23.40;7.95;;;;;;;-144.47;47.54;53308.97;4930455;29;20614;-71
2022/04/13 05:22:51;;;;;;;20.70;8.20;;;;;;;-144.47;47.49;53330.81;4931459;29;20510;-68
2022/04/13 05:25:16;;;;;;;19.92;8.10;;;;;;;-144.47;47.67;53332.81;4917482;29;20352;-70
2022/04/13 05:27:42;;;;;;;14.05;7.38;;;;;;;-144.47;47.33;53352.66;4925800;29;20028;-69
2022/04/13 05:30:10;;;;;;;19.02;7.45;;;;;;;-144.47;47.31;53312.94;4912396;29;20517;-70
2022/04/13 05:32:50;;;;;;;28.42;8.85;;;;;;;-144.47;46.90;53303.00;4894973;29;20088;-68
2022/04/13 05:35:16;;;;;;;17.80;7.80;;;;;;;-144.47;46.91;53305.00;4927902;29;20040;-69
2022/04/13 05:37:42;;;;;;;23.52;8.75;;;;;;;-144.47;46.59;53308.97;4931477;29;20054;-68
2022/04/13 05:40:08;;;;;;;26.75;7.95;;;;;;;-144.47;46.71;53305.00;4931460;29;20029;-68
2022/04/13 05:42:33;;;;;;;18.77;7.78;;;;;;;-144.47;46.38;53303.00;4925074;29;20526;-70
2022/04/13 05:44:58;;;;;;;15.48;7.15;;;;;;;-144.47;46.47;53320.88;4919167;29;20043;-69
2022/04/13 05:47:24;;;;;;;36.05;8.40;;;;;;;-144.47;46.27;53283.13;4927798;29;20028;-70
2022/04/13 05:49:50;;;;;;;19.90;8.20;;;;;;;-144.47;45.99;53271.22;4932367;29;20028;-70
2022/04/13 05:52:15;;;;;;;14.68;7.40;;;;;;;-144.47;45.77;53316.91;4922422;29;20107;-70
2022/04/13 05:54:41;;;;;;;21.88;7.28;;;;;;;-144.47;45.47;53295.06;4923199;29;20084;-70
2022/04/13 05:57:06;;;;;;;16.92;7.20;;;;;;;-144.47;45.31;53318.91;4911784;29;20043;-70
2022/04/13 05:59:31;;;;;;;22.02;6.72;;;;;;;-144.47;44.98;53312.94;4929130;29;20046;-70
2022/04/13 06:01:57;;;;;;;15.50;6.88;;;;;;;-144.47;44.67;53326.84;4920611;29;20134;-70
2022/04/13 06:04:23;;;;;;;27.02;9.45;;;;;;;-144.47;44.46;53332.81;4922604;29;20048;-70
2022/04/13 06:06:48;;;;;;;23.48;9.05;;;;;;;-144.47;43.94;53324.84;4921442;29;20090;-68
2022/04/13 06:09:14;;;;;;;17.42;7.30;;;;;;;-144.47;44.04;53293.06;4919142;29;20492;-71
2022/04/13 06:11:39;;;;;;;15.98;7.53;;;;;;;-144.47;43.86;53287.13;4922349;29;20060;-66
2022/04/13 06:14:04;;;;;;;24.63;7.88;;;;;;;-144.47;43.51;53287.13;4922425;29;20061;-69
2022/04/13 06:16:30;;;;;;;29.65;7.22;;;;;;;-144.47;43.44;53287.13;4911560;29;20036;-68
2022/04/13 06:18:55;;;;;;;17.42;6.80;;;;;;;-144.47;43.39;53277.19;4917578;29;20095;-69
2022/04/13 06:21:20;;;;;;;15.65;6.75;;;;;;;-144.47;43.34;53297.03;4922731;29;20048;-69
2022/04/13 06:23:47;;;;;;;27.17;7.43;;;;;;;-144.47;42.96;53263.28;4911606;29;20106;-71
2022/04/13 06:26:12;;;;;;;14.10;7.03;;;;;;;-144.47;42.75;53316.91;4914644;29;20077;-68
2022/04/13 06:28:37;;;;;;;15.45;7.00;;;;;;;-144.47;42.45;53287.13;4905107;29;20037;-67
2022/04/13 06:31:03;;;;;;;23.98;7.30;;;;;;;-144.47;42.49;53273.22;4911363;29;20043;-69
2022/04/13 06:33:28;;;;;;;16.60;6.75;;;;;;;-144.47;42.46;53257.31;4912721;29;20415;-68
2022/04/13 06:35:53;;;;;;;15.88;7.13;;;;;;;-144.47;42.37;53269.22;4913108;29;20113;-69
2022/04/13 06:38:18;;;;;;;20.63;8.68;;;;;;;-144.47;42.21;53265.25;4891350;29;20411;-69
2022/04/13 06:40:44;;;;;;;25.90;8.18;;;;;;;-144.47;42.07;53299.03;4921144;29;20115;-69
2022/04/13 06:43:09;;;;;;;15.43;6.68;;;;;;;-144.47;41.96;53251.34;4927202;29;20101;-69
2022/04/13 06:45:36;;;;;;;14.10;7.28;;;;;;;-144.47;41.90;53283.13;4930558;29;20031;-70
2022/04/13 06:48:02;;;;;;;24.77;7.78;;;;;;;-144.47;41.83;53277.19;4927142;29;20043;-69
2022/04/13 06:50:27;;;;;;;20.83;7.35;;;;;;;-144.47;41.72;53223.56;4916707;29;20032;-70
2022/04/13 06:52:53;;;;;;;20.10;7.25;;;;;;;-144.47;41.55;53279.16;4925865;29;20032;-70
2022/04/13 06:55:18;;;;;;;30.58;7.97;;;;;;;-144.47;41.31;53283.13;4915833;29;20096;-69
2022/04/13 06:57:43;;;;;;;17.27;6.43;;;;;;;-144.47;41.26;53271.22;4917782;29;20539;-69
2022/04/13 07:00:11;;;;;;;14.60;6.70;;;;;;;-144.47;40.80;53279.16;4916472;29;20033;-72
2022/04/13 07:02:39;;;;;;;20.13;9.13;;;;;;;-144.47;40.85;53269.22;4934421;29;20455;-71
2022/04/13 07:05:05;;;;;;;19.33;6.80;;;;;;;-144.47;40.98;53281.16;4920862;29;20923;-69
2022/04/13 07:07:31;;;;;;;23.67;7.22;;;;;;;-144.47;40.56;53217.59;4923309;29;20123;-69
2022/04/13 07:09:57;;;;;;;22.15;7.10;;;;;;;-144.47;40.85;53297.03;4921272;29;20040;-70
2022/04/13 07:12:22;;;;;;;27.38;7.50;;;;;;;-144.47;40.61;53281.16;4915116;29;20024;-70
2022/04/13 07:14:47;;;;;;;16.55;6.97;;;;;;;-144.47;40.58;53221.56;4914871;29;20122;-71
2022/04/13 07:17:13;;;;;;;15.32;6.22;;;;;;;-144.47;39.92;53259.31;4915394;29;20074;-70
2022/04/13 07:19:38;;;;;;;16.25;6.75;;;;;;;-144.47;39.78;53261.28;4914810;29;20107;-70
2022/04/13 07:22:04;;;;;;;15.00;6.75;;;;;;;-144.47;40.04;53289.09;4914435;29;20028;-69
2022/04/13 07:24:29;;;;;;;16.65;6.53;;;;;;;-144.47;39.90;53249.38;4915275;29;20079;-68
2022/04/13 07:26:55;;;;;;;17.88;6.63;;;;;;;-144.47;39.93;53287.13;4915727;29;20119;-70
2022/04/13 07:29:20;;;;;;;17.27;6.18;;;;;;;-144.47;39.90;53209.66;4914889;29;20127;-71
2022/04/13 07:31:45;;;;;;;21.98;7.47;;;;;;;-144.47;39.99;53233.47;4914354;29;20048;-70
2022/04/13 07:34:11;;;;;;;24.00;6.32;;;;;;;-144.47;39.74;53287.13;4914986;29;20510;-70
2022/04/13 07:36:36;;;;;;;20.40;6.43;;;;;;;-144.47;40.08;53261.28;4914996;29;20024;-71
2022/04/13 07:39:02;;;;;;;17.23;6.45;;;;;;;-144.47;39.65;53259.31;4915077;29;20074;-71
2022/04/13 07:41:28;;;;;;;17.88;7.22;;;;;;;-144.47;39.44;53245.41;4914511;29;20047;-72
2022/04/13 07:43:55;;;;;;;16.48;6.72;;;;;;;-144.47;39.49;53175.88;4914805;29;20036;-69
2022/04/13 07:46:21;;;;;;;11.77;5.65;;;;;;;-144.47;39.58;53261.28;4915109;29;20103;-69
2022/04/13 07:48:46;;;;;;;18.30;6.65;;;;;;;-144.47;39.32;53233.47;4914881;29;20431;-69
2022/04/13 07:51:11;;;;;;;13.02;6.28;;;;;;;-144.47;39.42;53241.44;4914306;29;20495;-73
2022/04/13 07:53:37;;;;;;;20.02;6.10;;;;;;;-144.47;38.58;53273.22;4914466;29;20044;-70
2022/04/13 07:56:02;;;;;;;20.35;5.88;;;;;;;-144.47;38.62;53251.34;4913976;29;20033;-71
2022/04/13 07:58:27;;;;;;;12.30;5.95;;;;;;;-144.47;38.79;53265.25;4914168;29;20100;-70
2022/04/13 08:00:53;;;;;;;14.30;5.95;;;;;;;-144.47;38.15;53261.28;4914395;29;20225;-72
2022/04/13 08:03:18;;;;;;;12.88;6.20;;;;;;;-144.47;37.90;53241.44;4914725;29;20044;-69
2022/04/13 08:05:44;;;;;;;18.15;6.22;;;;;;;-144.47;37.95;53227.53;4906269;29;20065;-70
2022/04/13 08:08:09;;;;;;;15.65;5.72;;;;;;;-144.47;37.87;53241.44;4913850;29;20107;-70
2022/04/13 08:10:34;;;;;;;29.73;7.30;;;;;;;-144.47;37.55;53217.59;4914240;29;20067;-69
2022/04/13 08:13:00;;;;;;;11.43;5.95;;;;;;;-144.47;37.20;53217.59;4913851;29;20028;-71
2022/04/13 08:15:25;;;;;;;13.15;6.10;;;;;;;-144.47;37.32;53235.47;4900078;29;20031;-70
2022/04/13 08:17:50;;;;;;;10.20;5.30;;;;;;;-144.47;37.23;53187.78;4913158;29;20064;-69
2022/04/13 08:20:16;;;;;;;14.40;5.53;;;;;;;-144.47;36.70;53245.41;4913733;29;20471;-71
2022/04/13 08:22:43;;;;;;;14.55;5.90;;;;;;;-144.47;35.64;53257.31;4913679;29;20052;-70
2022/04/13 08:25:09;;;;;;;20.95;6.38;;;;;;;-144.47;35.63;53243.41;4914312;29;20020;-70
2022/04/13 08:27:35;;;;;;;18.30;5.47;;;;;;;-144.47;35.54;53225.53;4906958;29;20103;-72
2022/04/13 08:30:00;;;;;;;18.38;5.68;;;;;;;-144.47;35.71;53225.53;4913696;29;20028;-69
2022/04/13 08:32:25;;;;;;;15.13;5.72;;;;;;;-144.47;35.62;53233.47;4914473;29;20024;-70
2022/04/13 08:34:54;;;;;;;18.60;5.20;;;;;;;-144.47;35.24;53235.47;4914070;29;20671;-70
2022/04/13 08:37:21;;;;;;;17.70;5.28;;;;;;;-144.47;35.16;53207.66;4913039;29;20043;-70
2022/04/13 08:39:46;;;;;;;11.35;5.07;;;;;;;-144.47;35.14;53229.50;4914239;29;20051;-70
2022/04/13 08:42:14;;;;;;;16.48;5.57;;;;;;;-144.47;35.15;53193.75;4913271;29;20040;-71
2022/04/13 08:44:45;;;;;;;13.02;5.40;;;;;;;-144.47;34.84;53185.81;4913588;29;20051;-71
2022/04/13 08:47:20;;;;;;;11.55;4.82;;;;;;;-144.47;34.86;53205.66;4907456;29;20507;-70
2022/04/13 08:49:48;;;;;;;23.10;5.43;;;;;;;-144.47;34.92;53177.88;4912746;29;20511;-68
2022/04/13 08:52:14;;;;;;;;;;;;;;;-144.47;34.32;53189.78;4896635;29;20027;-71
2022/04/13 08:55:05;;;;;;;18.05;4.90;;;;;;;-144.47;34.64;53233.47;4913310;29;19919;-70
2022/04/13 08:57:36;;;;;;;18.83;5.55;;;;;;;-144.47;34.27;53177.88;4906082;29;20044;-71
2022/04/13 09:00:16;;;;;;;20.60;5.35;;;;;;;-144.47;34.31;53235.47;4911585;29;20059;-70
2022/04/13 09:02:47;;;;;;;13.02;5.20;;;;;;;-144.47;34.34;53173.88;4912451;29;20099;-68
2022/04/13 09:05:33;;;;;;;21.80;5.88;;;;;;;-144.47;34.17;53205.66;4912695;29;20107;-71
2022/04/13 09:08:12;;;;;;;22.30;5.88;;;;;;;-144.47;34.49;53181.84;4911752;29;20036;-70
2022/04/13 09:10:39;;;;;;;18.92;5.93;;;;;;;-144.47;33.72;53213.63;4912299;29;20232;-70
2022/04/13 09:13:08;;;;;;;12.80;4.90;;;;;;;-144.47;33.33;53183.81;4912431;29;20035;-73
2022/04/13 09:15:35;;;;;;;12.20;5.68;;;;;;;-144.47;32.30;53203.69;4913782;29;20062;-71
2022/04/13 09:18:01;;;;;;;20.10;5.10;;;;;;;-144.47;32.42;53193.75;4912900;29;20028;-70
2022/04/13 09:20:26;;;;;;;12.35;4.50;;;;;;;-144.47;32.21;53154.03;4912715;29;20032;-69
2022/04/13 09:22:54;;;;;;;16.63;3.95;;;;;;;-144.47;32.30;53169.91;4912643;29;20032;-70
2022/04/13 09:25:21;;;;;;;17.57;4.37;;;;;;;-144.47;32.35;53177.88;4912537;29;20035;-71
2022/04/13 09:27:47;;;;;;;13.57;4.32;;;;;;;-144.47;32.01;53197.72;4913962;29;20263;-71
2022/04/13 09:30:13;;;;;;;22.10;4.88;;;;;;;-144.47;32.65;53165.94;4897807;29;20036;-72
2022/04/13 09:32:38;;;;;;;11.82;4.07;;;;;;;-144.47;32.19;53142.09;4912573;29;20032;-71
2022/04/13 09:35:05;;;;;;;23.20;4.75;;;;;;;-144.47;31.76;53207.66;4913663;29;20047;-71
2022/04/13 09:37:31;;;;;;;14.80;4.97;;;;;;;-144.47;31.96;53173.88;4914087;29;20430;-71
2022/04/13 09:39:57;;;;;;;14.27;3.90;;;;;;;-144.47;31.37;53169.91;4912898;29;20029;-70
2022/04/13 09:42:26;;;;;;;16.45;4.00;;;;;;;-144.47;31.38;53209.66;4912809;29;20055;-69
2022/04/13 09:44:56;;;;;;;23.45;4.90;;;;;;;-144.47;31.96;53160.00;4912164;29;20043;-70
2022/04/13 09:47:21;;;;;;;15.77;5.13;;;;;;;-144.47;32.03;53185.81;4912091;29;20407;-70
2022/04/13 09:49:52;;;;;;;13.98;5.18;;;;;;;-144.47;31.41;53146.09;4912463;29;20521;-71
2022/04/13 09:52:20;;;;;;;13.23;4.20;;;;;;;-144.47;31.60;53193.75;4898916;29;20043;-71
2022/04/13 09:54:46;;;;;;;9.93;3.97;;;;;;;-144.47;31.69;53138.13;4912485;29;20076;-70
2022/04/13 09:57:22;;;;;;;14.05;4.60;;;;;;;-144.47;32.08;53148.06;4912741;29;20117;-69
2022/04/13 09:59:54;;;;;;;13.40;4.65;;;;;;;-144.47;32.16;53160.00;4912237;29;20035;-69
2022/04/13 10:02:43;;;;;;;19.98;4.57;;;;;;;-144.47;31.70;53146.09;4912049;29;20032;-70
2022/04/13 10:05:20;;;;;;;15.15;4.93;;;;;;;-144.47;30.73;53154.03;4911946;29;20056;-69
2022/04/13 10:08:02;;;;;;;12.82;4.20;;;;;;;-144.47;31.04;53213.63;4910404;29;20056;-70
2022/04/13 10:10:28;;;;;;;23.63;5.10;;;;;;;-144.47;31.31;53177.88;4908860;29;20032;-73
2022/04/13 10:12:53;;;;;;;17.70;5.43;;;;;;;-144.47;30.86;53142.09;4910820;29;20434;-71
2022/04/13 10:15:19;;;;;;;16.05;4.90;;;;;;;-144.47;31.02;53165.94;4892795;29;20042;-71
2022/04/13 10:17:44;;;;;;;18.35;4.72;;;;;;;-144.47;31.18;53171.91;4911624;29;20040;-70
2022/04/13 10:20:10;;;;;;;18.80;4.78;;;;;;;-144.47;30.74;53175.88;4911860;29;20060;-70
2022/04/13 10:22:58;;;;;;;24.73;4.63;;;;;;;-144.47;30.25;53144.09;4911498;29;20051;-69
2022/04/13 10:25:26;;;;;;;15.02;4.68;;;;;;;-144.47;30.54;53154.03;4898764;29;20095;-71
2022/04/13 10:28:01;;;;;;;15.68;3.63;;;;;;;-144.47;30.34;53114.31;4895361;29;20035;-70
2022/04/13 10:30:29;;;;;;;23.75;3.88;;;;;;;-144.47;30.85;53146.09;4911450;29;20044;-68
2022/04/13 10:33:04;;;;;;;16.55;4.15;;;;;;;-144.47;29.87;53152.03;4911514;29;20044;-68
2022/04/13 10:35:32;;;;;;;12.70;3.45;;;;;;;-144.47;29.86;53160.00;4911494;29;20439;-69
2022/04/13 10:37:58;;;;;;;8.25;3.40;;;;;;;-144.47;29.79;53146.09;4904143;29;20503;-68
2022/04/13 10:40:30;;;;;;;14.60;3.50;;;;;;;-144.47;29.84;53150.06;4911270;29;20107;-71
2022/04/13 10:42:59;;;;;;;18.20;3.63;;;;;;;-144.47;29.59;53120.25;4945180;23;20040;-74
2022/04/13 10:45:28;;;;;;;27.42;3.80;;;;;;;-144.47;29.80;53148.06;4910342;29;20016;-73
2022/04/13 10:47:58;;;;;;;11.82;3.40;;;;;;;-144.47;29.71;53136.16;4910460;29;20055;-77
2022/04/13 10:50:54;;;;;;;29.60;5.15;;;;;;;-144.47;29.22;53130.19;4910097;29;20491;-74
2022/04/13 10:53:29;;;;;;;8.88;2.80;;;;;;;-144.47;29.47;53108.34;4888689;29;20049;-74
2022/04/13 10:56:03;;;;;;;9.82;3.50;;;;;;;-144.47;29.69;53169.91;4890987;29;20152;-72
2022/04/13 10:58:48;;;;;;;19.35;3.95;;;;;;;-144.47;29.87;53165.94;4890503;29;20643;-72
2022/04/13 11:01:15;;;;;;;10.10;2.67;;;;;;;-144.47;29.49;53126.22;4890619;29;20028;-75
2022/04/13 11:03:41;;;;;;;9.00;3.13;;;;;;;-144.47;29.39;53128.22;4891580;29;20461;-72
2022/04/13 11:06:09;;;;;;;12.30;3.72;;;;;;;-144.47;29.73;53116.28;4890127;29;20080;-74
2022/04/13 11:08:51;;;;;;;12.63;3.45;;;;;;;-144.47;29.06;53136.16;4887328;29;20100;-76